createdAt,value
2017-11-14T00:01:48.205Z,4.43
2017-11-14T00:04:14.782Z,4.00
2017-11-14T00:06:41.365Z,4.27
2017-11-14T00:09:07.962Z,4.37
2017-11-14T00:11:34.609Z,4.43
2017-11-14T00:14:01.207Z,3.90
2017-11-14T00:16:27.789Z,4.80
2017-11-14T00:18:54.389Z,4.00
2017-11-14T00:21:20.978Z,4.40
2017-11-14T00:23:47.558Z,4.20
2017-11-14T00:26:14.143Z,4.20
2017-11-14T00:28:40.726Z,4.60
2017-11-14T00:31:07.314Z,4.10
2017-11-14T00:33:33.891Z,4.70
2017-11-14T00:36:00.473Z,5.10
2017-11-14T00:38:27.057Z,4.50
2017-11-14T00:40:53.638Z,4.57
2017-11-14T00:43:20.222Z,5.20
2017-11-14T00:45:46.804Z,4.90
2017-11-14T00:48:13.394Z,4.63
2017-11-14T00:50:39.974Z,5.00
2017-11-14T00:53:06.554Z,4.67
2017-11-14T00:55:33.141Z,4.60
2017-11-14T00:57:59.730Z,4.87
2017-11-14T01:00:26.319Z,4.63
2017-11-14T01:02:52.904Z,4.63
2017-11-14T01:05:19.485Z,5.23
2017-11-14T01:07:46.064Z,4.13
2017-11-14T01:10:12.643Z,4.77
2017-11-14T01:12:39.243Z,5.30
2017-11-14T01:15:05.854Z,4.90
2017-11-14T01:17:32.442Z,4.60
2017-11-14T01:19:59.022Z,5.13
2017-11-14T01:22:25.607Z,4.90
2017-11-14T01:24:52.185Z,4.90
2017-11-14T01:27:18.761Z,6.10
2017-11-14T01:29:45.343Z,5.23
2017-11-14T01:32:11.921Z,5.57
2017-11-14T01:34:38.507Z,5.40
2017-11-14T01:37:05.125Z,5.30
2017-11-14T01:39:31.714Z,5.20
2017-11-14T01:41:58.294Z,6.27
2017-11-14T01:44:24.878Z,5.43
2017-11-14T01:46:51.463Z,5.27
2017-11-14T01:49:18.038Z,5.13
2017-11-14T01:51:46.430Z,5.73
2017-11-14T01:54:13.854Z,5.90
2017-11-14T01:56:43.981Z,5.40
2017-11-14T01:59:10.745Z,5.83
2017-11-14T02:01:37.322Z,5.50
2017-11-14T02:04:03.906Z,5.40
2017-11-14T02:06:30.485Z,5.60
2017-11-14T02:08:57.070Z,5.73
2017-11-14T02:11:23.648Z,6.03
2017-11-14T02:13:50.238Z,5.60
2017-11-14T02:16:16.845Z,6.40
2017-11-14T02:18:43.420Z,5.70
2017-11-14T02:21:10.010Z,6.30
2017-11-14T02:23:36.586Z,6.30
2017-11-14T02:26:03.169Z,6.30
2017-11-14T02:28:29.760Z,6.37
2017-11-14T02:30:56.348Z,6.27
2017-11-14T02:33:22.924Z,6.10
2017-11-14T02:35:49.506Z,5.90
2017-11-14T02:38:16.094Z,6.23
2017-11-14T02:40:42.671Z,5.83
2017-11-14T02:43:09.269Z,6.67
2017-11-14T02:45:35.863Z,7.10
2017-11-14T02:48:02.436Z,6.80
2017-11-14T02:50:29.014Z,6.53
2017-11-14T02:52:55.606Z,6.80
2017-11-14T02:55:22.175Z,6.23
2017-11-14T02:57:48.755Z,6.20
2017-11-14T03:00:15.338Z,6.43
2017-11-14T03:02:41.919Z,6.43
2017-11-14T03:05:08.506Z,6.47
2017-11-14T03:07:35.093Z,6.37
2017-11-14T03:10:01.680Z,6.40
2017-11-14T03:12:28.264Z,6.20
2017-11-14T03:14:54.845Z,6.10
2017-11-14T03:17:21.436Z,7.50
2017-11-14T03:19:48.019Z,6.33
2017-11-14T03:22:14.602Z,6.20
2017-11-14T03:24:41.190Z,6.10
2017-11-14T03:27:07.778Z,6.33
2017-11-14T03:29:34.378Z,6.87
2017-11-14T03:32:00.959Z,6.87
2017-11-14T03:34:27.553Z,6.97
2017-11-14T03:36:54.128Z,6.60
2017-11-14T03:39:20.703Z,6.60
2017-11-14T03:41:47.290Z,6.03
2017-11-14T03:44:13.887Z,6.10
2017-11-14T03:46:40.454Z,6.20
2017-11-14T03:49:07.033Z,6.10
2017-11-14T03:51:33.627Z,6.30
2017-11-14T03:54:00.201Z,6.10
2017-11-14T03:56:26.886Z,5.83
2017-11-14T03:58:53.474Z,5.60
2017-11-14T04:01:20.123Z,6.27
2017-11-14T04:03:46.698Z,7.07
2017-11-14T04:06:13.269Z,6.33
2017-11-14T04:08:39.854Z,5.90
2017-11-14T04:11:06.438Z,5.93
2017-11-14T04:13:33.026Z,6.57
2017-11-14T04:15:59.618Z,6.30
2017-11-14T04:18:26.227Z,6.33
2017-11-14T04:20:52.826Z,6.47
2017-11-14T04:23:19.411Z,6.43
2017-11-14T04:25:45.989Z,6.40
2017-11-14T04:28:12.574Z,6.30
2017-11-14T04:30:39.167Z,6.70
2017-11-14T04:33:05.751Z,6.80
2017-11-14T04:35:32.345Z,6.67
2017-11-14T04:37:58.960Z,7.40
2017-11-14T04:40:25.538Z,6.97
2017-11-14T04:42:52.112Z,6.70
2017-11-14T04:45:18.693Z,6.57
2017-11-14T04:47:45.282Z,6.30
2017-11-14T04:50:11.860Z,7.40
2017-11-14T04:52:38.451Z,7.00
2017-11-14T04:55:05.037Z,7.90
2017-11-14T04:57:31.630Z,7.30
2017-11-14T04:59:58.214Z,7.13
2017-11-14T05:02:24.810Z,7.10
2017-11-14T05:04:51.390Z,7.00
2017-11-14T05:07:17.967Z,7.53
2017-11-14T05:09:44.554Z,7.70
2017-11-14T05:12:11.138Z,7.60
2017-11-14T05:14:37.786Z,6.80
2017-11-14T05:17:04.366Z,8.47
2017-11-14T05:19:30.957Z,7.77
2017-11-14T05:21:57.522Z,7.70
2017-11-14T05:24:24.115Z,8.17
2017-11-14T05:26:50.694Z,7.37
2017-11-14T05:29:17.287Z,7.50
2017-11-14T05:31:43.861Z,8.20
2017-11-14T05:34:10.445Z,7.97
2017-11-14T05:36:37.046Z,7.77
2017-11-14T05:39:03.631Z,8.00
2017-11-14T05:41:30.223Z,7.50
2017-11-14T05:43:56.798Z,8.43
2017-11-14T05:46:23.398Z,7.40
2017-11-14T05:48:49.979Z,7.50
2017-11-14T05:51:16.562Z,8.43
2017-11-14T05:53:43.141Z,8.20
2017-11-14T05:56:09.739Z,7.80
2017-11-14T05:58:36.326Z,8.17
2017-11-14T06:01:02.906Z,9.30
2017-11-14T06:03:29.494Z,8.60
2017-11-14T06:05:56.070Z,8.10
2017-11-14T06:08:22.658Z,8.17
2017-11-14T06:10:49.234Z,7.77
2017-11-14T06:13:15.810Z,8.03
2017-11-14T06:15:42.402Z,7.93
2017-11-14T06:18:08.981Z,7.67
2017-11-14T06:20:35.573Z,7.90
2017-11-14T06:23:02.151Z,8.40
2017-11-14T06:25:28.745Z,8.90
2017-11-14T06:27:55.335Z,8.37
2017-11-14T06:30:21.926Z,9.00
2017-11-14T06:32:48.506Z,8.93
2017-11-14T06:35:15.090Z,8.50
2017-11-14T06:37:41.662Z,8.73
2017-11-14T06:40:08.241Z,8.17
2017-11-14T06:42:34.841Z,7.60
2017-11-14T06:45:01.435Z,7.90
2017-11-14T06:47:28.007Z,8.57
2017-11-14T06:49:54.594Z,8.07
2017-11-14T06:52:21.172Z,8.43
2017-11-14T06:54:47.769Z,8.30
2017-11-14T06:57:14.354Z,8.00
2017-11-14T06:59:40.934Z,9.27
2017-11-14T07:02:07.509Z,7.53
2017-11-14T07:04:34.109Z,8.10
2017-11-14T07:07:00.692Z,7.13
2017-11-14T07:09:27.269Z,7.10
2017-11-14T07:11:53.855Z,7.70
2017-11-14T07:14:20.512Z,7.27
2017-11-14T07:16:47.090Z,7.07
2017-11-14T07:19:13.657Z,7.50
2017-11-14T07:21:40.260Z,7.40
2017-11-14T07:24:06.845Z,7.83
2017-11-14T07:26:33.414Z,7.70
2017-11-14T07:29:00.002Z,8.27
2017-11-14T07:31:26.778Z,8.27
2017-11-14T07:33:53.364Z,7.43
2017-11-14T07:36:19.938Z,8.10
2017-11-14T07:38:46.523Z,8.07
2017-11-14T07:41:13.103Z,8.13
2017-11-14T07:43:39.718Z,8.37
2017-11-14T07:46:06.290Z,8.50
2017-11-14T07:48:32.879Z,8.00
2017-11-14T07:50:59.458Z,7.80
2017-11-14T07:53:26.041Z,8.57
2017-11-14T07:55:52.625Z,7.50
2017-11-14T07:58:19.209Z,7.53
2017-11-14T08:00:45.798Z,8.63
2017-11-14T08:03:12.375Z,7.67
2017-11-14T08:05:38.957Z,8.20
2017-11-14T08:08:05.541Z,7.90
2017-11-14T08:10:32.122Z,8.63
2017-11-14T08:12:58.707Z,8.63
2017-11-14T08:15:25.338Z,9.00
2017-11-14T08:17:51.935Z,9.13
2017-11-14T08:20:18.509Z,9.10
2017-11-14T08:22:45.090Z,9.13
2017-11-14T08:25:11.670Z,8.50
2017-11-14T08:27:38.316Z,9.90
2017-11-14T08:30:04.891Z,9.20
2017-11-14T08:32:31.477Z,9.60
2017-11-14T08:34:58.069Z,8.90
2017-11-14T08:37:24.648Z,9.00
2017-11-14T08:39:51.236Z,9.40
2017-11-14T08:42:17.807Z,8.27
2017-11-14T08:44:44.402Z,9.17
2017-11-14T08:47:10.977Z,9.50
2017-11-14T08:49:37.558Z,8.80
2017-11-14T08:52:04.160Z,9.30
2017-11-14T08:54:30.747Z,9.23
2017-11-14T08:56:57.321Z,9.13
2017-11-14T08:59:23.899Z,9.73
2017-11-14T09:01:50.485Z,10.43
2017-11-14T09:04:17.082Z,10.03
2017-11-14T09:06:43.662Z,9.37
2017-11-14T09:09:10.260Z,8.20
2017-11-14T09:11:36.838Z,8.80
2017-11-14T09:14:03.415Z,8.00
2017-11-14T09:16:30.017Z,6.93
2017-11-14T09:18:56.597Z,6.70
2017-11-14T09:21:23.178Z,6.83
2017-11-14T09:23:49.758Z,6.97
2017-11-14T09:26:16.338Z,6.57
2017-11-14T09:28:42.925Z,6.73
2017-11-14T09:31:09.506Z,7.20
2017-11-14T09:33:36.090Z,7.00
2017-11-14T09:36:03.490Z,6.50
2017-11-14T09:38:30.078Z,7.40
2017-11-14T09:40:56.656Z,8.93
2017-11-14T09:43:23.256Z,6.20
2017-11-14T09:45:49.835Z,6.17
2017-11-14T09:48:16.409Z,5.70
2017-11-14T09:50:43.026Z,5.83
2017-11-14T09:53:09.611Z,5.73
2017-11-14T09:55:36.198Z,5.70
2017-11-14T09:58:02.772Z,5.80
2017-11-14T10:00:29.362Z,4.77
2017-11-14T10:02:55.938Z,5.70
2017-11-14T10:05:22.526Z,4.67
2017-11-14T10:07:49.104Z,4.30
2017-11-14T10:10:15.688Z,5.27
2017-11-14T10:12:42.265Z,5.30
2017-11-14T10:15:08.854Z,5.30
2017-11-14T10:17:35.465Z,5.73
2017-11-14T10:20:02.037Z,5.53
2017-11-14T10:22:28.623Z,5.37
2017-11-14T10:24:55.199Z,5.00
2017-11-14T10:27:21.822Z,6.03
2017-11-14T10:29:48.401Z,5.10
2017-11-14T10:32:14.976Z,5.27
2017-11-14T10:34:41.557Z,4.30
2017-11-14T10:37:08.134Z,4.60
2017-11-14T10:39:34.734Z,4.73
2017-11-14T10:42:01.314Z,4.80
2017-11-14T10:44:27.891Z,4.30
2017-11-14T10:46:54.471Z,4.93
2017-11-14T10:49:21.061Z,5.77
2017-11-14T10:51:47.633Z,4.67
2017-11-14T10:54:14.211Z,4.90
2017-11-14T10:56:40.798Z,4.90
2017-11-14T10:59:07.376Z,4.80
2017-11-14T11:01:33.959Z,4.97
2017-11-14T11:04:00.543Z,4.50
2017-11-14T11:06:27.126Z,4.80
2017-11-14T11:08:53.702Z,5.13
2017-11-14T11:11:20.285Z,4.80
2017-11-14T11:13:46.867Z,4.43
2017-11-14T11:16:13.439Z,4.30
2017-11-14T11:18:40.031Z,5.47
2017-11-14T11:21:06.618Z,4.20
2017-11-14T11:23:33.208Z,4.73
2017-11-14T11:25:59.792Z,4.50
2017-11-14T11:28:26.374Z,4.50
2017-11-14T11:30:52.958Z,4.30
2017-11-14T11:33:19.556Z,4.43
2017-11-14T11:35:46.143Z,4.47
2017-11-14T11:38:12.714Z,4.83
2017-11-14T11:40:39.305Z,4.40
2017-11-14T11:43:05.910Z,4.60
2017-11-14T11:45:32.514Z,5.80
2017-11-14T11:47:59.091Z,3.67
2017-11-14T11:50:25.768Z,3.87
2017-11-14T11:52:52.442Z,5.67
2017-11-14T11:55:19.027Z,4.93
2017-11-14T11:57:45.603Z,6.77
2017-11-14T12:00:12.186Z,3.00
2017-11-14T12:02:38.785Z,3.70
2017-11-14T12:05:05.359Z,3.40
2017-11-14T12:07:31.938Z,2.87
2017-11-14T12:09:58.514Z,2.70
2017-11-14T12:12:25.096Z,2.87
2017-11-14T12:14:51.662Z,2.23
2017-11-14T12:17:18.246Z,2.53
2017-11-14T12:19:44.819Z,2.80
2017-11-14T12:22:11.402Z,2.60
2017-11-14T12:24:37.986Z,2.30
2017-11-14T12:27:05.398Z,2.50
2017-11-14T12:29:31.995Z,2.40
2017-11-14T12:31:58.611Z,2.10
2017-11-14T12:34:25.187Z,2.90
2017-11-14T12:36:51.757Z,2.73
2017-11-14T12:39:18.344Z,2.50
2017-11-14T12:41:44.910Z,2.63
2017-11-14T12:44:11.503Z,2.10
2017-11-14T12:46:38.081Z,2.10
2017-11-14T12:49:04.670Z,2.30
2017-11-14T12:51:31.267Z,2.10
2017-11-14T12:53:57.879Z,2.00
2017-11-14T12:56:24.462Z,2.40
2017-11-14T12:58:51.042Z,2.20
2017-11-14T13:01:17.622Z,2.20
2017-11-14T13:03:44.201Z,1.90
2017-11-14T13:06:10.787Z,2.20
2017-11-14T13:08:37.386Z,2.17
2017-11-14T13:11:03.986Z,2.20
2017-11-14T13:13:30.558Z,2.13
2017-11-14T13:15:57.126Z,2.00
2017-11-14T13:18:23.742Z,1.80
2017-11-14T13:20:50.314Z,2.20
2017-11-14T13:23:16.893Z,1.93
2017-11-14T13:25:43.466Z,2.07
2017-11-14T13:28:10.045Z,3.53
2017-11-14T13:30:36.618Z,2.03
2017-11-14T13:33:03.211Z,1.93
2017-11-14T13:35:29.782Z,2.13
2017-11-14T13:37:56.358Z,1.70
2017-11-14T13:40:22.952Z,1.90
2017-11-14T13:42:49.526Z,2.07
2017-11-14T13:45:16.114Z,1.97
2017-11-14T13:47:42.692Z,2.10
2017-11-14T13:50:09.279Z,1.90
2017-11-14T13:52:35.899Z,2.37
2017-11-14T13:55:02.479Z,1.63
2017-11-14T13:57:29.059Z,1.70
2017-11-14T13:59:55.626Z,2.10
2017-11-14T14:02:22.206Z,1.87
2017-11-14T14:04:48.779Z,1.93
2017-11-14T14:07:15.358Z,2.03
2017-11-14T14:09:41.932Z,2.30
2017-11-14T14:12:08.525Z,2.30
2017-11-14T14:14:35.099Z,2.40
2017-11-14T14:17:01.670Z,2.50
2017-11-14T14:19:28.250Z,3.00
2017-11-14T14:21:54.831Z,3.30
2017-11-14T14:24:21.414Z,2.60
2017-11-14T14:26:47.987Z,3.10
2017-11-14T14:29:14.561Z,2.77
2017-11-14T14:31:41.135Z,3.20
2017-11-14T14:34:07.727Z,2.73
2017-11-14T14:36:34.290Z,2.67
2017-11-14T14:39:00.875Z,2.73
2017-11-14T14:41:27.465Z,2.33
2017-11-14T14:43:54.027Z,2.60
2017-11-14T14:46:20.606Z,3.00
2017-11-14T14:48:47.182Z,3.70
2017-11-14T14:51:13.767Z,4.60
2017-11-14T14:53:40.350Z,4.10
2017-11-14T14:56:06.951Z,3.73
2017-11-14T14:58:33.519Z,3.47
2017-11-14T15:01:00.102Z,3.73
2017-11-14T15:03:26.677Z,2.80
2017-11-14T15:05:53.254Z,2.80
2017-11-14T15:08:19.835Z,2.80
2017-11-14T15:10:46.406Z,3.20
2017-11-14T15:13:12.986Z,3.20
2017-11-14T15:15:39.557Z,3.37
2017-11-14T15:18:06.153Z,3.10
2017-11-14T15:20:32.729Z,3.23
2017-11-14T15:22:59.332Z,2.77
2017-11-14T15:25:25.894Z,2.90
2017-11-14T15:27:52.469Z,3.00
2017-11-14T15:30:19.056Z,2.80
2017-11-14T15:32:45.622Z,2.43
2017-11-14T15:35:12.198Z,2.40
2017-11-14T15:37:38.778Z,2.57
2017-11-14T15:40:05.358Z,2.73
2017-11-14T15:42:31.936Z,2.50
2017-11-14T15:44:58.517Z,2.90
2017-11-14T15:47:25.090Z,2.87
2017-11-14T15:49:51.674Z,2.60
2017-11-14T15:52:18.251Z,2.50
2017-11-14T15:54:44.822Z,2.30
2017-11-14T15:57:11.414Z,2.50
2017-11-14T15:59:38.062Z,2.50
2017-11-14T16:02:04.638Z,2.60
2017-11-14T16:04:31.213Z,2.30
2017-11-14T16:06:57.802Z,2.80
2017-11-14T16:09:24.374Z,4.23
2017-11-14T16:11:50.971Z,4.10
2017-11-14T16:14:17.545Z,3.90
2017-11-14T16:16:44.130Z,3.43
2017-11-14T16:19:10.704Z,2.60
2017-11-14T16:21:37.274Z,2.37
2017-11-14T16:24:03.863Z,1.97
2017-11-14T16:26:30.438Z,2.63
2017-11-14T16:28:57.019Z,2.40
2017-11-14T16:31:23.599Z,2.80
2017-11-14T16:33:50.174Z,2.73
2017-11-14T16:36:16.745Z,2.60
2017-11-14T16:38:43.321Z,2.80
2017-11-14T16:41:09.898Z,3.63
2017-11-14T16:43:36.500Z,3.50
2017-11-14T16:46:03.071Z,3.00
2017-11-14T16:48:29.642Z,2.30
2017-11-14T16:50:56.223Z,3.10
2017-11-14T16:53:22.802Z,2.27
2017-11-14T16:55:49.383Z,2.53
2017-11-14T16:58:15.970Z,2.50
2017-11-14T17:00:42.555Z,2.70
2017-11-14T17:03:09.167Z,3.17
2017-11-14T17:05:35.732Z,2.67
2017-11-14T17:08:02.314Z,2.20
2017-11-14T17:10:28.882Z,2.63
2017-11-14T17:15:29.314Z,2.40
2017-11-14T17:17:55.902Z,2.83
2017-11-14T17:20:22.473Z,3.30
2017-11-14T17:22:49.060Z,3.10
2017-11-14T17:25:15.633Z,3.27
2017-11-14T17:27:42.231Z,3.67
2017-11-14T17:30:08.824Z,3.40
2017-11-14T17:32:35.396Z,4.27
2017-11-14T17:35:02.042Z,4.70
2017-11-14T17:37:28.682Z,4.43
2017-11-14T17:39:55.271Z,4.13
2017-11-14T17:42:22.753Z,4.50
2017-11-14T17:44:51.057Z,3.60
2017-11-14T17:47:17.630Z,4.50
2017-11-14T17:49:44.221Z,4.60
2017-11-14T17:52:10.802Z,5.23
2017-11-14T17:54:37.386Z,5.50
2017-11-14T17:57:03.963Z,4.90
2017-11-14T17:59:30.547Z,7.77
2017-11-14T18:01:57.126Z,7.27
2017-11-14T18:04:23.714Z,8.07
2017-11-14T18:06:50.302Z,8.33
2017-11-14T18:09:16.882Z,8.57
2017-11-14T18:11:43.710Z,8.13
2017-11-14T18:14:10.341Z,7.10
2017-11-14T18:16:36.934Z,6.63
2017-11-14T18:19:03.516Z,6.40
2017-11-14T18:21:30.907Z,5.80
2017-11-14T18:23:57.491Z,6.43
2017-11-14T18:26:24.067Z,6.23
2017-11-14T18:28:50.645Z,6.67
2017-11-14T18:31:17.226Z,7.03
2017-11-14T18:33:43.809Z,6.73
2017-11-14T18:36:10.422Z,6.57
2017-11-14T18:38:37.031Z,6.97
2017-11-14T18:41:03.608Z,6.70
2017-11-14T18:43:30.304Z,6.13
2017-11-14T18:45:56.885Z,7.00
2017-11-14T18:48:23.483Z,7.03
2017-11-14T18:50:50.070Z,8.10
2017-11-14T18:53:17.474Z,7.93
2017-11-14T18:55:44.166Z,8.40
2017-11-14T18:58:10.786Z,9.87
2017-11-14T19:00:37.376Z,7.70
2017-11-14T19:03:03.986Z,7.80
2017-11-14T19:05:30.563Z,7.83
2017-11-14T19:07:57.154Z,7.90
2017-11-14T19:10:23.778Z,8.13
2017-11-14T19:12:50.373Z,8.50
2017-11-14T19:15:17.002Z,7.90
2017-11-14T19:17:43.587Z,7.40
2017-11-14T19:20:10.267Z,7.93
2017-11-14T19:22:36.990Z,8.10
2017-11-14T19:25:03.569Z,7.80
2017-11-14T19:27:30.147Z,8.50
2017-11-14T19:29:56.733Z,8.37
2017-11-14T19:32:23.552Z,9.23
2017-11-14T19:34:50.136Z,9.13
2017-11-14T19:37:16.714Z,8.40
2017-11-14T19:39:43.316Z,8.60
2017-11-14T19:42:09.918Z,7.63
2017-11-14T19:44:36.502Z,8.13
2017-11-14T19:47:03.081Z,8.37
2017-11-14T19:49:29.746Z,11.20
2017-11-14T19:51:56.534Z,12.17
2017-11-14T19:54:23.132Z,11.10
2017-11-14T19:56:49.750Z,9.10
2017-11-14T19:59:16.329Z,9.07
2017-11-14T20:01:42.926Z,8.23
2017-11-14T20:04:09.515Z,7.60
2017-11-14T20:06:36.126Z,8.07
2017-11-14T20:09:02.722Z,7.80
2017-11-14T20:11:29.328Z,7.77
2017-11-14T20:13:55.933Z,8.00
2017-11-14T20:16:22.504Z,7.73
2017-11-14T20:18:50.131Z,7.90
2017-11-14T20:21:16.730Z,9.37
2017-11-14T20:23:43.387Z,9.13
2017-11-14T20:26:09.987Z,9.40
2017-11-14T20:28:36.674Z,9.13
2017-11-14T20:31:03.252Z,8.50
2017-11-14T20:33:29.835Z,8.87
2017-11-14T20:35:56.423Z,8.10
2017-11-14T20:38:23.091Z,8.40
2017-11-14T20:40:49.711Z,7.20
2017-11-14T20:43:16.396Z,7.80
2017-11-14T20:45:43.030Z,8.47
2017-11-14T20:48:09.655Z,7.40
2017-11-14T20:50:37.220Z,7.40
2017-11-14T20:53:03.926Z,8.37
2017-11-14T20:55:30.790Z,8.20
2017-11-14T20:57:58.482Z,8.90
2017-11-14T21:00:25.099Z,9.00
2017-11-14T21:02:51.695Z,9.60
2017-11-14T21:05:18.470Z,8.93
2017-11-14T21:07:45.056Z,9.70
2017-11-14T21:10:11.660Z,9.70
2017-11-14T21:12:38.774Z,9.67
2017-11-14T21:15:05.413Z,11.27
2017-11-14T21:17:31.985Z,11.43
2017-11-14T21:19:58.570Z,11.80
2017-11-14T21:22:25.171Z,11.60
2017-11-14T21:24:51.758Z,10.50
2017-11-14T21:27:18.338Z,10.17
2017-11-14T21:29:44.934Z,10.03
2017-11-14T21:32:11.595Z,9.80
2017-11-14T21:34:38.206Z,10.30
2017-11-14T21:37:05.278Z,10.97
2017-11-14T21:39:31.860Z,10.40
2017-11-14T21:41:58.447Z,10.70
2017-11-14T21:44:25.033Z,10.33
2017-11-14T21:46:51.688Z,10.43
2017-11-14T21:49:18.299Z,11.00
2017-11-14T21:51:44.890Z,10.77
2017-11-14T21:54:11.475Z,11.37
2017-11-14T21:56:38.068Z,11.70
2017-11-14T21:59:04.686Z,11.57
2017-11-14T22:01:31.261Z,12.37
2017-11-14T22:03:57.894Z,11.23
2017-11-14T22:06:24.510Z,11.43
2017-11-14T22:08:51.100Z,12.10
2017-11-14T22:11:17.673Z,12.20
2017-11-14T22:13:44.268Z,11.30
2017-11-14T22:16:10.854Z,12.13
2017-11-14T22:18:37.988Z,11.60
2017-11-14T22:21:04.573Z,11.57
2017-11-14T22:23:31.158Z,11.70
2017-11-14T22:25:57.747Z,11.50
2017-11-14T22:28:24.326Z,12.10
2017-11-14T22:30:50.914Z,11.17
2017-11-14T22:33:17.498Z,11.20
2017-11-14T22:35:44.083Z,11.30
2017-11-14T22:38:10.664Z,11.00
2017-11-14T22:40:37.277Z,11.83
2017-11-14T22:43:03.853Z,11.70
2017-11-14T22:45:30.437Z,11.90
2017-11-14T22:47:57.026Z,11.30
2017-11-14T22:50:23.619Z,10.90
2017-11-14T22:52:50.211Z,10.97
2017-11-14T22:55:16.785Z,11.50
2017-11-14T22:57:43.379Z,11.13
2017-11-14T23:00:09.968Z,11.30
2017-11-14T23:02:36.576Z,11.97
2017-11-14T23:05:03.162Z,11.70
2017-11-14T23:07:29.742Z,11.27
2017-11-14T23:09:56.330Z,12.27
2017-11-14T23:12:22.914Z,13.00
2017-11-14T23:14:49.494Z,11.63
2017-11-14T23:17:16.079Z,12.97
2017-11-14T23:19:42.670Z,12.60
2017-11-14T23:22:09.280Z,13.30
2017-11-14T23:24:35.861Z,12.53
2017-11-14T23:27:02.446Z,13.37
2017-11-14T23:29:29.026Z,13.17
2017-11-14T23:31:55.614Z,12.83
2017-11-14T23:34:22.199Z,13.43
2017-11-14T23:36:48.853Z,14.30
2017-11-14T23:39:15.451Z,13.57
2017-11-14T23:41:42.023Z,14.00
2017-11-14T23:44:08.614Z,13.80
2017-11-14T23:46:35.203Z,14.60
2017-11-14T23:49:01.801Z,13.87
2017-11-14T23:51:28.373Z,14.10
2017-11-14T23:53:54.959Z,15.37
2017-11-14T23:56:21.571Z,14.73
2017-11-14T23:58:48.159Z,14.40
